Time;durP1;ratioP1;P1;durP2;ratioP2;P2;SDS_P1;SDS_P2;PMS_P1;PMS_P2;Temp;Humidity;BMP_temperature;BMP_pressure;BME280_temperature;BME280_humidity;BME280_pressure;Samples;Min_cycle;Max_cycle;Signal;HPM_P1;HPM_P2
2021/03/18 00:00:27;;;;;;;19.35;6.40;;;;;;;4.57;60.57;98604.46;1775082;80;21177;-40
2021/03/18 00:02:55;;;;;;;13.35;5.05;;;;;;;4.58;60.63;98605.25;1788634;80;21386;-39
2021/03/18 00:05:23;;;;;;;18.07;6.17;;;;;;;4.56;60.65;98606.13;1788849;79;21729;-39
2021/03/18 00:07:51;;;;;;;12.58;4.80;;;;;;;4.55;60.66;98604.00;1788598;80;21127;-39
2021/03/18 00:10:19;;;;;;;12.50;5.70;;;;;;;4.55;60.65;98603.25;1788721;79;21166;-39
2021/03/18 00:12:48;;;;;;;12.58;5.78;;;;;;;4.54;60.70;98605.70;1765362;80;21465;-39
2021/03/18 00:15:18;;;;;;;17.05;5.20;;;;;;;4.54;60.71;98602.47;1765005;81;21450;-40
2021/03/18 00:17:46;;;;;;;12.43;4.87;;;;;;;4.54;60.91;98602.47;1765248;81;21131;-39
2021/03/18 00:20:15;;;;;;;14.63;5.55;;;;;;;4.56;60.84;98607.47;1784287;79;21387;-39
2021/03/18 00:22:44;;;;;;;17.52;5.62;;;;;;;4.56;60.83;98603.45;1718254;83;21146;-39
2021/03/18 00:25:15;;;;;;;15.23;5.85;;;;;;;4.57;60.74;98604.46;1796534;79;21610;-39
2021/03/18 00:27:45;;;;;;;18.77;5.50;;;;;;;4.57;60.74;98595.06;1718197;83;21367;-39
2021/03/18 00:30:16;;;;;;;15.00;5.83;;;;;;;4.56;60.80;98600.20;1796791;79;21221;-40
2021/03/18 00:32:44;;;;;;;14.45;5.28;;;;;;;4.56;60.94;98596.18;1718388;83;21585;-40
2021/03/18 00:35:13;;;;;;;14.18;5.37;;;;;;;4.55;60.96;98591.92;1796780;79;21607;-39
2021/03/18 00:37:42;;;;;;;11.60;5.17;;;;;;;4.55;61.04;98586.56;1718484;83;21199;-39
2021/03/18 00:40:27;;;;;;;13.15;5.35;;;;;;;4.55;61.11;98593.27;1796387;79;21365;-39
2021/03/18 00:43:05;;;;;;;9.30;4.58;;;;;;;4.56;61.08;98588.12;1718298;83;21194;-40
2021/03/18 00:45:36;;;;;;;14.45;5.37;;;;;;;4.56;61.06;98592.71;1796506;79;21601;-39
2021/03/18 00:48:05;;;;;;;;;;;;;;;4.55;61.12;98591.92;1721031;83;21202;-40
2021/03/18 00:50:48;;;;;;;15.90;4.65;;;;;;;4.55;61.19;98595.20;1739943;82;20543;-39
2021/03/18 00:53:22;;;;;;;12.30;4.83;;;;;;;4.45;61.44;98591.08;1718253;83;22064;-39
2021/03/18 00:55:52;;;;;;;10.90;4.50;;;;;;;4.45;61.47;98592.97;1796398;79;21026;-40
2021/03/18 00:58:21;;;;;;;;;;;;;;;4.48;61.38;98595.75;1721012;83;21127;-39
2021/03/18 01:00:52;;;;;;;9.78;4.40;;;;;;;4.50;61.35;98596.21;1739691;82;20307;-39
2021/03/18 01:03:22;;;;;;;11.43;4.67;;;;;;;4.42;61.52;98593.06;1718391;83;21135;-40
2021/03/18 01:06:11;;;;;;;12.75;4.53;;;;;;;4.43;61.52;98594.64;1796420;79;21194;-39
2021/03/18 01:08:39;;;;;;;12.40;4.72;;;;;;;4.44;61.48;98595.42;1709009;83;21582;-39
2021/03/18 01:11:21;;;;;;;9.60;4.07;;;;;;;4.44;61.55;98598.89;1778686;79;21135;-39
2021/03/18 01:13:54;;;;;;;11.45;4.45;;;;;;;4.45;61.47;98591.08;1718165;83;21117;-40
2021/03/18 01:16:27;;;;;;;9.63;4.55;;;;;;;4.44;61.51;98592.19;1796610;79;21546;-39
2021/03/18 01:19:04;;;;;;;9.65;5.10;;;;;;;4.44;61.52;98591.40;1718090;83;21530;-39
2021/03/18 01:21:35;;;;;;;12.88;4.58;;;;;;;4.44;61.63;98593.53;1796522;79;21578;-39
2021/03/18 01:24:06;;;;;;;11.65;4.60;;;;;;;4.45;61.66;98595.66;1796578;79;21147;-40
2021/03/18 01:26:33;;;;;;;15.48;5.42;;;;;;;4.45;61.68;98588.39;1796615;79;21108;-40
2021/03/18 01:29:01;;;;;;;13.50;5.37;;;;;;;4.46;61.68;98592.61;1796377;79;21143;-40
2021/03/18 01:31:31;;;;;;;;;;;;;;;4.47;61.71;98596.87;1720939;83;21202;-39
2021/03/18 01:34:00;;;;;;;16.55;4.70;;;;;;;4.49;61.76;98599.22;1740046;82;20245;-39
2021/03/18 01:36:28;;;;;;;13.68;4.80;;;;;;;4.39;62.00;98603.15;1796621;79;21609;-39
2021/03/18 01:38:56;;;;;;;12.90;4.70;;;;;;;4.47;61.99;98602.23;1707471;82;21641;-40
2021/03/18 01:41:26;;;;;;;8.98;4.72;;;;;;;4.59;61.90;98604.13;1737532;82;21182;-39
2021/03/18 01:43:54;;;;;;;7.60;3.52;;;;;;;4.68;61.84;98601.55;1708149;84;21694;-39
2021/03/18 01:46:22;;;;;;;15.55;5.72;;;;;;;4.75;61.79;98595.02;1737552;82;21298;-39
2021/03/18 01:48:51;;;;;;;12.75;5.85;;;;;;;4.83;61.65;98597.93;1708348;82;21176;-39
2021/03/18 01:51:20;;;;;;;12.98;5.67;;;;;;;4.86;61.70;98597.24;1768051;81;21143;-39
2021/03/18 01:53:49;;;;;;;15.73;6.90;;;;;;;4.87;61.84;98592.09;1737745;82;21180;-40
2021/03/18 01:56:17;;;;;;;13.83;6.35;;;;;;;4.86;62.13;98602.05;1767944;81;21197;-39
2021/03/18 01:58:46;;;;;;;14.50;6.65;;;;;;;4.83;62.31;98599.27;1737282;82;21184;-39
2021/03/18 02:01:18;;;;;;;17.73;6.45;;;;;;;4.78;62.53;98597.05;1768332;81;21158;-39
2021/03/18 02:03:48;;;;;;;18.02;7.17;;;;;;;4.73;62.74;98595.94;1737253;82;21183;-39
2021/03/18 02:06:16;;;;;;;18.47;6.77;;;;;;;4.68;62.93;98600.20;1768338;81;21147;-39
2021/03/18 02:08:45;;;;;;;13.13;7.08;;;;;;;4.65;63.06;98597.39;1737719;82;21210;-39
2021/03/18 02:11:13;;;;;;;15.58;7.40;;;;;;;4.60;63.29;98598.41;1767802;81;21186;-39
2021/03/18 02:13:41;;;;;;;13.85;6.95;;;;;;;4.58;63.43;98603.34;1737505;82;21591;-39
2021/03/18 02:16:12;;;;;;;15.55;6.97;;;;;;;4.57;63.63;98601.78;1767990;81;21193;-40
2021/03/18 02:18:51;;;;;;;13.08;7.17;;;;;;;4.61;63.69;98605.34;1737431;82;21205;-40
2021/03/18 02:22:00;;;;;;;19.37;7.97;;;;;;;4.69;63.79;98603.11;1768263;81;21358;-40
2021/03/18 02:25:00;;;;;;;16.32;8.05;;;;;;;4.74;63.81;98601.52;1737296;82;21686;-40
2021/03/18 02:27:54;;;;;;;;;;;;;;;4.70;64.16;98606.00;1770754;81;21123;-40
2021/03/18 02:30:53;;;;;;;16.55;7.92;;;;;;;4.66;64.42;98607.80;1731908;82;20297;-40
2021/03/18 02:34:03;;;;;;;16.25;8.13;;;;;;;4.55;64.79;98610.72;1731884;82;21199;-40
2021/03/18 02:36:43;;;;;;;18.02;8.20;;;;;;;4.50;65.02;98610.97;1731423;82;21575;-40
2021/03/18 02:39:16;;;;;;;17.23;8.40;;;;;;;4.46;65.31;98611.40;1737797;82;21166;-40
2021/03/18 02:41:47;;;;;;;16.45;8.45;;;;;;;4.43;65.48;98617.45;1735850;82;21811;-40
2021/03/18 02:44:20;;;;;;;14.07;7.92;;;;;;;4.39;65.73;98615.22;1737743;82;21161;-40
2021/03/18 02:46:52;;;;;;;20.60;7.70;;;;;;;4.39;65.87;98612.54;1768011;81;21451;-40
2021/03/18 02:49:20;;;;;;;14.85;7.35;;;;;;;4.45;65.91;98613.88;1736613;82;21658;-40
2021/03/18 02:51:47;;;;;;;14.63;7.67;;;;;;;4.50;65.95;98615.00;1735969;82;21154;-40
2021/03/18 02:54:18;;;;;;;20.80;7.90;;;;;;;4.53;66.02;98618.90;1689825;82;21181;-40
2021/03/18 02:56:48;;;;;;;19.90;7.80;;;;;;;4.53;66.08;98622.37;1735922;82;21143;-40
2021/03/18 02:59:18;;;;;;;;;;;;;;;4.54;66.10;98623.94;1738796;82;21132;-40
2021/03/18 03:01:46;;;;;;;17.55;7.62;;;;;;;4.54;66.15;98622.59;1737700;81;22044;-40
2021/03/18 03:04:14;;;;;;;20.23;8.88;;;;;;;4.42;66.45;98622.59;1737705;82;22061;-40
2021/03/18 03:06:43;;;;;;;23.65;8.53;;;;;;;4.39;66.56;98621.93;1708057;84;21143;-40
2021/03/18 03:09:11;;;;;;;17.60;7.72;;;;;;;4.36;66.64;98626.61;1737542;82;21151;-40
2021/03/18 03:11:39;;;;;;;15.13;7.55;;;;;;;4.37;66.67;98623.59;1707995;84;21163;-40
2021/03/18 03:14:08;;;;;;;14.43;7.72;;;;;;;4.43;66.67;98632.77;1737494;82;21212;-40
2021/03/18 03:16:37;;;;;;;20.20;7.97;;;;;;;4.44;66.78;98631.09;1708138;84;21210;-40
2021/03/18 03:19:07;;;;;;;15.00;7.72;;;;;;;4.43;66.87;98624.72;1737500;82;21167;-40
2021/03/18 03:21:35;;;;;;;16.93;8.15;;;;;;;4.43;66.93;98629.53;1708117;83;21651;-40
2021/03/18 03:24:06;;;;;;;20.00;8.83;;;;;;;4.41;67.06;98631.75;1737616;82;21132;-40
2021/03/18 03:26:34;;;;;;;25.15;9.40;;;;;;;4.41;67.09;98637.67;1708064;84;21418;-40
2021/03/18 03:29:02;;;;;;;18.85;8.05;;;;;;;4.36;67.24;98636.00;1724107;81;21143;-40
2021/03/18 03:31:30;;;;;;;16.37;7.60;;;;;;;4.32;67.37;98637.80;1752974;81;21108;-39
2021/03/18 03:34:02;;;;;;;23.10;8.85;;;;;;;4.35;67.36;98638.48;1752878;81;21159;-40
2021/03/18 03:36:30;;;;;;;16.20;7.47;;;;;;;4.37;67.24;98643.73;1753095;81;21554;-40
2021/03/18 03:38:58;;;;;;;19.65;9.15;;;;;;;4.40;67.28;98636.92;1752914;81;23509;-40
2021/03/18 03:41:26;;;;;;;21.87;8.05;;;;;;;4.41;67.36;98640.36;1752935;81;21164;-40
2021/03/18 03:43:54;;;;;;;16.97;8.48;;;;;;;4.41;67.36;98641.14;1752808;81;21179;-40
2021/03/18 03:46:22;;;;;;;17.20;7.80;;;;;;;4.41;67.37;98647.85;1752919;81;21393;-40
2021/03/18 03:48:50;;;;;;;16.67;7.92;;;;;;;4.38;67.38;98641.83;1752784;81;21187;-40
2021/03/18 03:51:18;;;;;;;17.98;8.73;;;;;;;4.38;67.40;98644.52;1753103;81;22198;-40
2021/03/18 03:53:55;;;;;;;15.93;7.55;;;;;;;4.31;67.51;98649.08;1752805;81;21235;-40
2021/03/18 03:56:33;;;;;;;21.93;8.23;;;;;;;4.33;67.53;98647.41;1752999;81;21133;-40
2021/03/18 03:59:07;;;;;;;19.48;8.40;;;;;;;4.39;67.46;98648.77;1752830;81;21670;-40
2021/03/18 04:01:56;;;;;;;21.10;8.28;;;;;;;4.39;67.50;98650.11;1748729;81;21176;-40
2021/03/18 04:04:29;;;;;;;17.10;8.63;;;;;;;4.37;67.53;98652.33;1776514;80;21212;-40
2021/03/18 04:07:04;;;;;;;19.52;8.60;;;;;;;4.32;67.60;98652.00;1812460;78;21500;-40
2021/03/18 04:09:33;;;;;;;13.30;7.95;;;;;;;4.28;67.68;98655.12;1812056;79;21174;-40
2021/03/18 04:12:01;;;;;;;25.65;9.58;;;;;;;4.22;67.85;98658.36;1778832;79;21174;-40
2021/03/18 04:14:33;;;;;;;19.20;8.08;;;;;;;4.18;68.00;98658.80;1764802;79;21107;-40
2021/03/18 04:17:08;;;;;;;16.30;8.35;;;;;;;4.14;68.08;98655.23;1812491;79;21669;-40
2021/03/18 04:19:39;;;;;;;17.12;7.65;;;;;;;4.19;68.06;98660.37;1808976;79;21122;-40
2021/03/18 04:22:09;;;;;;;20.45;8.38;;;;;;;4.24;67.96;98652.90;1737879;82;21142;-40
2021/03/18 04:24:37;;;;;;;16.27;8.88;;;;;;;4.24;67.97;98653.45;1768276;81;21628;-40
2021/03/18 04:27:05;;;;;;;20.30;8.68;;;;;;;4.26;67.99;98656.01;1737472;82;21199;-40
2021/03/18 04:29:33;;;;;;;23.55;8.73;;;;;;;4.27;67.91;98657.58;1768007;81;21200;-40
2021/03/18 04:32:01;;;;;;;14.60;8.58;;;;;;;4.30;67.90;98656.14;1737526;82;21630;-40
2021/03/18 04:34:31;;;;;;;22.37;9.10;;;;;;;4.30;67.86;98656.94;1734473;82;28409;-40
2021/03/18 04:36:59;;;;;;;16.25;8.10;;;;;;;4.27;67.93;98660.82;1767455;81;21162;-40
2021/03/18 04:39:27;;;;;;;15.35;8.35;;;;;;;4.29;67.91;98663.41;1767995;81;21163;-40
2021/03/18 04:41:55;;;;;;;17.35;8.78;;;;;;;4.35;67.88;98661.30;1750624;80;21252;-40
2021/03/18 04:44:23;;;;;;;20.60;8.50;;;;;;;4.40;67.82;98665.66;1756289;81;21153;-40
2021/03/18 04:46:53;;;;;;;15.43;8.93;;;;;;;4.37;67.82;98669.77;1756337;81;21167;-40
2021/03/18 04:49:24;;;;;;;22.48;9.90;;;;;;;4.36;67.80;98673.02;1756320;81;21121;-40
2021/03/18 04:51:52;;;;;;;16.87;9.10;;;;;;;4.36;67.83;98676.25;1726237;83;21150;-40
2021/03/18 04:54:20;;;;;;;19.82;8.60;;;;;;;4.34;67.87;98679.84;1756434;81;21365;-40
2021/03/18 04:56:48;;;;;;;15.10;9.65;;;;;;;4.32;67.84;98678.05;1756207;81;21171;-40
2021/03/18 04:59:17;;;;;;;18.45;8.90;;;;;;;4.31;67.85;98681.84;1756375;81;21200;-40
2021/03/18 05:01:52;;;;;;;17.07;8.73;;;;;;;4.32;67.88;98684.75;1756176;80;21427;-40
2021/03/18 05:04:21;;;;;;;18.57;9.10;;;;;;;4.40;67.71;98683.09;1756485;81;21150;-40
2021/03/18 05:06:51;;;;;;;16.25;9.43;;;;;;;4.43;67.76;98687.78;1756304;81;21414;-40
2021/03/18 05:09:20;;;;;;;18.20;9.83;;;;;;;4.44;67.64;98685.33;1724792;83;21161;-40
2021/03/18 05:11:50;;;;;;;19.70;9.83;;;;;;;4.44;67.70;98688.02;1756219;81;21161;-40
2021/03/18 05:14:18;;;;;;;16.80;9.70;;;;;;;4.41;67.75;98694.81;1696346;83;21146;-40
2021/03/18 05:16:46;;;;;;;17.02;9.28;;;;;;;4.42;67.77;98691.58;1756270;81;21177;-40
2021/03/18 05:19:14;;;;;;;13.05;9.10;;;;;;;4.41;67.78;98691.34;1732318;81;21561;-40
2021/03/18 05:21:48;;;;;;;16.40;8.70;;;;;;;4.47;67.70;98688.67;1756312;81;21209;-40
2021/03/18 05:24:16;;;;;;;20.00;9.13;;;;;;;4.58;67.38;98692.48;1756258;81;21178;-40
2021/03/18 05:26:44;;;;;;;18.95;9.00;;;;;;;4.60;67.31;98695.05;1756292;80;21121;-40
2021/03/18 05:29:13;;;;;;;13.72;9.33;;;;;;;4.61;67.21;98702.55;1756322;81;21193;-40
2021/03/18 05:31:43;;;;;;;15.83;9.58;;;;;;;4.62;67.20;98704.91;1726326;83;22117;-40
2021/03/18 05:34:13;;;;;;;;;;;;;;;4.60;67.20;98704.44;1759083;81;21201;-40
2021/03/18 05:36:40;;;;;;;19.05;10.50;;;;;;;4.59;67.17;98702.91;1726251;83;20286;-40
2021/03/18 05:39:09;;;;;;;15.25;9.93;;;;;;;4.51;67.38;98712.37;1756350;81;21173;-40
2021/03/18 05:41:36;;;;;;;14.35;9.15;;;;;;;4.51;67.36;98715.85;1705435;83;21190;-40
2021/03/18 05:44:08;;;;;;;13.00;9.00;;;;;;;4.52;67.31;98708.03;1770292;81;21198;-40
2021/03/18 05:46:36;;;;;;;18.73;9.35;;;;;;;4.58;67.18;98710.72;1740458;81;21043;-40
2021/03/18 05:49:04;;;;;;;16.27;8.88;;;;;;;4.62;67.06;98707.59;1774836;79;21019;-40
2021/03/18 05:51:34;;;;;;;15.15;9.43;;;;;;;4.66;67.00;98717.09;1801804;79;21032;-40
2021/03/18 05:54:04;;;;;;;15.80;9.35;;;;;;;4.66;66.99;98713.84;1801826;79;21617;-40
2021/03/18 05:56:32;;;;;;;14.98;8.85;;;;;;;4.70;66.94;98714.73;1802056;79;21332;-40
2021/03/18 05:59:01;;;;;;;21.60;9.83;;;;;;;4.74;66.79;98722.34;1801542;79;21186;-40
2021/03/18 06:01:29;;;;;;;16.65;9.45;;;;;;;4.76;66.37;98726.83;1774335;79;21115;-40
2021/03/18 06:03:58;;;;;;;20.45;9.60;;;;;;;4.76;66.26;98724.14;1770303;80;21759;-40
2021/03/18 06:06:26;;;;;;;18.37;9.98;;;;;;;4.77;66.11;98732.42;1770294;81;21158;-40
2021/03/18 06:08:54;;;;;;;17.02;8.58;;;;;;;4.76;66.11;98733.54;1770298;80;22259;-40
2021/03/18 06:11:22;;;;;;;18.73;9.35;;;;;;;4.83;65.94;98740.26;1770163;81;21126;-40
2021/03/18 06:13:51;;;;;;;18.55;10.20;;;;;;;4.88;66.06;98741.38;1770370;81;21142;-40
2021/03/18 06:16:20;;;;;;;19.52;9.08;;;;;;;4.89;65.83;98738.92;1770343;81;21040;-40
2021/03/18 06:18:48;;;;;;;15.32;8.75;;;;;;;4.89;65.63;98742.36;1771068;79;21174;-40
2021/03/18 06:21:16;;;;;;;22.20;9.00;;;;;;;4.93;65.61;98741.16;1802000;79;22660;-40
2021/03/18 06:24:01;;;;;;;15.65;8.68;;;;;;;4.99;65.31;98737.88;1784798;79;21015;-40
2021/03/18 06:26:36;;;;;;;17.12;8.55;;;;;;;5.02;64.94;98733.75;1770286;81;21170;-40
2021/03/18 06:29:33;;;;;;;18.55;8.25;;;;;;;5.01;64.45;98738.34;1770322;81;21162;-40
2021/03/18 06:32:16;;;;;;;13.75;7.47;;;;;;;5.04;64.38;98741.69;1755498;81;21202;-40
2021/03/18 06:34:53;;;;;;;15.48;7.90;;;;;;;5.04;63.96;98744.37;1768480;81;21213;-40
2021/03/18 06:37:35;;;;;;;14.28;7.22;;;;;;;5.02;63.77;98746.62;1770463;80;21570;-40
2021/03/18 06:40:19;;;;;;;15.58;7.35;;;;;;;5.03;63.77;98742.83;1770274;79;21689;-40
2021/03/18 06:43:00;;;;;;;18.15;7.90;;;;;;;5.15;63.28;98750.86;1784293;80;21497;-40
2021/03/18 06:45:36;;;;;;;13.68;7.35;;;;;;;5.24;63.28;98751.52;1786121;80;21104;-40
2021/03/18 06:48:10;;;;;;;15.72;7.35;;;;;;;5.28;63.21;98747.58;1786027;80;21005;-40
2021/03/18 06:50:43;;;;;;;12.53;7.05;;;;;;;5.38;63.13;98750.36;1781303;80;20995;-40
2021/03/18 06:53:26;;;;;;;15.63;6.60;;;;;;;5.51;62.88;98751.36;1841529;76;22717;-39
2021/03/18 06:55:56;;;;;;;11.85;5.67;;;;;;;5.60;62.67;98756.59;1811066;79;20973;-39
2021/03/18 06:58:27;;;;;;;11.55;6.03;;;;;;;5.71;61.88;98754.21;1745401;82;21183;-39
2021/03/18 07:01:06;;;;;;;9.78;5.78;;;;;;;5.77;61.79;98751.48;1756094;81;21034;-39
2021/03/18 07:03:37;;;;;;;11.12;5.78;;;;;;;5.83;61.12;98750.12;1789418;79;21032;-39
2021/03/18 07:06:08;;;;;;;15.93;6.25;;;;;;;5.84;60.47;98750.34;1789394;80;20956;-39
2021/03/18 07:08:38;;;;;;;;;;;;;;;5.85;60.21;98746.53;1792292;80;21178;-39
2021/03/18 07:11:20;;;;;;;12.13;5.62;;;;;;;5.88;59.85;98749.91;1789289;80;21258;-39
2021/03/18 07:13:52;;;;;;;13.40;6.10;;;;;;;5.81;60.03;98751.04;1789368;80;21146;-39
2021/03/18 07:16:20;;;;;;;18.55;6.87;;;;;;;5.88;59.86;98753.94;1784106;80;21008;-39
2021/03/18 07:18:57;;;;;;;12.13;5.58;;;;;;;5.92;59.75;98752.13;1778722;80;21174;-39
2021/03/18 07:21:37;;;;;;;10.45;6.40;;;;;;;5.98;59.58;98752.89;1783402;80;21111;-39
2021/03/18 07:24:25;;;;;;;11.87;5.17;;;;;;;6.07;59.72;98748.70;1784387;80;21202;-39
2021/03/18 07:26:55;;;;;;;14.80;6.45;;;;;;;6.20;58.87;98754.22;1784043;80;21003;-39
2021/03/18 07:29:31;;;;;;;13.38;7.03;;;;;;;6.28;58.79;98750.61;1757269;80;21596;-39
2021/03/18 07:31:59;;;;;;;16.87;7.40;;;;;;;6.40;58.50;98750.52;1752845;81;21193;-39
2021/03/18 07:34:28;;;;;;;15.28;6.80;;;;;;;6.51;58.10;98750.23;1753207;81;21576;-39
2021/03/18 07:37:00;;;;;;;11.28;6.35;;;;;;;6.60;57.94;98751.41;1751694;81;21217;-39
2021/03/18 07:39:28;;;;;;;11.50;6.35;;;;;;;6.64;57.81;98759.00;1772668;80;21070;-39
2021/03/18 07:41:57;;;;;;;11.95;5.28;;;;;;;6.64;57.23;98763.60;1784080;80;21537;-39
2021/03/18 07:44:24;;;;;;;15.00;6.00;;;;;;;6.61;57.41;98761.05;1784150;80;21179;-39
2021/03/18 07:46:52;;;;;;;13.88;5.35;;;;;;;6.64;56.83;98752.27;1783925;80;21134;-39
2021/03/18 07:49:24;;;;;;;11.75;5.22;;;;;;;6.66;56.53;98754.06;1784172;80;22260;-39
2021/03/18 07:51:55;;;;;;;12.53;4.85;;;;;;;6.67;56.34;98757.54;1783905;80;21730;-39
2021/03/18 07:54:23;;;;;;;14.53;5.03;;;;;;;6.66;56.20;98758.10;1784230;80;21189;-40
2021/03/18 07:56:54;;;;;;;13.18;4.85;;;;;;;6.69;55.89;98758.74;1783896;80;21165;-39
2021/03/18 07:59:31;;;;;;;10.78;4.72;;;;;;;6.75;55.71;98752.53;1784012;80;21589;-40
2021/03/18 08:02:22;;;;;;;10.38;4.53;;;;;;;6.81;55.98;98760.58;1752984;81;21374;-39
2021/03/18 08:04:58;;;;;;;16.15;5.58;;;;;;;6.88;55.26;98745.91;1831047;78;23133;-40
2021/03/18 08:07:42;;;;;;;13.38;5.28;;;;;;;6.78;55.65;98754.52;1803370;79;21004;-39
2021/03/18 08:10:25;;;;;;;13.93;5.58;;;;;;;6.78;56.31;98751.83;1803538;79;21783;-39
2021/03/18 08:12:54;;;;;;;11.40;6.67;;;;;;;6.78;55.98;98754.52;1785134;79;21159;-39
2021/03/18 08:15:32;;;;;;;13.53;6.50;;;;;;;6.73;56.70;98754.22;1734950;82;21261;-39
2021/03/18 08:18:17;;;;;;;10.75;5.75;;;;;;;6.69;57.14;98762.00;1734794;82;21001;-39
2021/03/18 08:20:56;;;;;;;15.48;6.22;;;;;;;6.60;57.69;98759.48;1720516;82;21139;-39
2021/03/18 08:23:32;;;;;;;12.07;6.25;;;;;;;6.56;57.99;98762.66;1739025;82;21261;-40
2021/03/18 08:26:08;;;;;;;10.28;6.20;;;;;;;6.53;57.84;98764.71;1742806;82;21052;-40
2021/03/18 08:28:57;;;;;;;12.60;6.30;;;;;;;6.45;57.95;98761.59;1742657;82;20999;-40
2021/03/18 08:31:36;;;;;;;10.77;5.63;;;;;;;6.36;58.37;98769.06;1769792;81;21138;-40
2021/03/18 08:34:05;;;;;;;15.78;7.28;;;;;;;6.33;58.40;98773.23;1742613;82;21640;-40
2021/03/18 08:36:56;;;;;;;16.12;6.60;;;;;;;6.35;58.40;98773.66;1743019;82;22112;-40
2021/03/18 08:39:50;;;;;;;11.35;7.28;;;;;;;6.38;58.54;98775.68;1769664;81;21549;-40
2021/03/18 08:42:35;;;;;;;12.98;8.03;;;;;;;6.35;59.38;98776.35;1743000;82;21154;-40
2021/03/18 08:45:22;;;;;;;14.73;7.70;;;;;;;6.28;60.45;98784.26;1742953;82;21625;-40
2021/03/18 08:47:56;;;;;;;11.48;8.33;;;;;;;6.32;60.86;98783.78;1769514;81;21176;-40
2021/03/18 08:50:30;;;;;;;15.58;9.78;;;;;;;6.40;61.29;98784.73;1722258;82;21637;-40
2021/03/18 08:52:59;;;;;;;11.10;9.35;;;;;;;6.36;61.67;98784.66;1713335;82;21187;-40
2021/03/18 08:55:45;;;;;;;16.15;10.43;;;;;;;6.30;62.10;98786.02;1713319;83;21162;-40
2021/03/18 08:58:16;;;;;;;14.05;9.25;;;;;;;6.31;62.27;98787.59;1746890;82;21190;-40
2021/03/18 09:03:25;;;;;;;14.40;9.75;;;;;;;6.32;62.61;98784.34;1808153;78;22841;-39
2021/03/18 09:05:58;;;;;;;11.90;9.15;;;;;;;6.32;62.84;98783.78;1783600;80;20912;-39
2021/03/18 09:08:30;;;;;;;13.45;9.48;;;;;;;6.33;62.44;98788.05;1783714;80;21182;-39
2021/03/18 09:10:59;;;;;;;12.60;9.25;;;;;;;6.26;63.06;98793.79;1783423;80;21047;-39
2021/03/18 09:13:28;;;;;;;13.13;8.20;;;;;;;6.25;62.97;98798.39;1783632;80;20939;-39
2021/03/18 09:15:57;;;;;;;11.97;8.70;;;;;;;6.29;62.41;98797.94;1783446;80;21023;-39
2021/03/18 09:18:31;;;;;;;13.30;9.25;;;;;;;6.26;62.91;98801.86;1783598;80;21042;-39
2021/03/18 09:21:11;;;;;;;13.38;9.23;;;;;;;6.22;63.24;98801.78;1814192;79;21254;-39
2021/03/18 09:23:44;;;;;;;15.43;9.45;;;;;;;6.17;62.51;98800.67;1748758;82;21021;-39
2021/03/18 09:26:15;;;;;;;10.08;8.30;;;;;;;6.08;62.90;98805.43;1779756;80;21194;-39
2021/03/18 09:28:50;;;;;;;13.53;8.75;;;;;;;6.04;63.26;98808.59;1748731;82;21085;-39
2021/03/18 09:31:22;;;;;;;11.88;8.83;;;;;;;6.03;63.54;98811.05;1779690;80;21147;-39
2021/03/18 09:33:54;;;;;;;13.48;8.55;;;;;;;6.00;63.57;98811.16;1748695;82;22350;-39
2021/03/18 09:36:28;;;;;;;11.75;7.53;;;;;;;5.96;63.88;98804.91;1779740;80;21155;-39
2021/03/18 09:39:14;;;;;;;10.18;8.43;;;;;;;5.95;63.79;98811.99;1744123;82;21430;-39
2021/03/18 09:41:45;;;;;;;11.75;9.05;;;;;;;6.01;63.87;98813.29;1763218;81;21126;-39
2021/03/18 09:44:15;;;;;;;12.03;8.78;;;;;;;6.07;64.02;98807.89;1763621;81;21174;-39
2021/03/18 09:46:51;;;;;;;11.43;8.83;;;;;;;6.11;64.17;98807.42;1763335;81;21439;-39
2021/03/18 09:49:33;;;;;;;10.82;7.85;;;;;;;6.15;64.36;98807.55;1748883;82;21597;-39
2021/03/18 09:52:05;;;;;;;12.35;8.73;;;;;;;6.16;63.90;98808.52;1779732;80;21169;-39
2021/03/18 09:57:14;;;;;;;9.58;6.70;;;;;;;6.10;64.26;98801.81;1814537;79;22300;-39
2021/03/18 09:59:43;;;;;;;10.30;6.70;;;;;;;6.04;63.68;98800.52;1787376;80;21067;-39
2021/03/18 10:02:14;;;;;;;8.15;6.45;;;;;;;6.09;63.68;98811.04;1787341;80;21287;-39
2021/03/18 10:04:42;;;;;;;9.80;6.55;;;;;;;6.10;63.52;98813.37;1732975;80;21008;-39
2021/03/18 10:07:12;;;;;;;8.03;6.25;;;;;;;6.14;63.34;98806.76;1787415;80;21048;-39
2021/03/18 10:09:44;;;;;;;11.43;6.37;;;;;;;6.23;63.17;98809.29;1787361;80;21055;-39
2021/03/18 10:12:21;;;;;;;7.60;6.55;;;;;;;6.39;63.47;98806.84;1787475;80;21530;-39
2021/03/18 10:14:54;;;;;;;8.98;5.33;;;;;;;6.52;62.29;98811.05;1786805;80;21426;-39
2021/03/18 10:17:26;;;;;;;7.47;6.30;;;;;;;6.59;62.26;98805.60;1782403;80;20984;-39
2021/03/18 10:20:20;;;;;;;10.58;6.47;;;;;;;6.64;62.11;98806.70;1787326;80;21058;-39
2021/03/18 10:23:02;;;;;;;10.23;6.72;;;;;;;6.61;61.89;98807.40;1787316;80;21043;-39
2021/03/18 10:25:32;;;;;;;6.75;5.45;;;;;;;6.53;61.78;98810.48;1787600;80;21123;-39
2021/03/18 10:28:10;;;;;;;5.60;4.80;;;;;;;6.41;62.01;98811.33;1787485;80;21361;-39
2021/03/18 10:30:45;;;;;;;5.50;4.87;;;;;;;6.31;61.85;98809.12;1787409;80;20952;-39
2021/03/18 10:33:24;;;;;;;6.70;5.35;;;;;;;6.20;62.07;98809.40;1757315;80;21179;-39
2021/03/18 10:35:58;;;;;;;5.40;4.57;;;;;;;6.15;62.61;98802.92;1748140;82;21806;-39
2021/03/18 10:38:39;;;;;;;7.60;4.65;;;;;;;6.17;62.47;98816.83;1752583;79;21328;-39
2021/03/18 10:41:14;;;;;;;6.70;4.85;;;;;;;6.17;62.18;98811.44;1787270;80;21609;-39
2021/03/18 10:43:44;;;;;;;5.00;4.42;;;;;;;6.21;62.28;98815.01;1787222;80;21162;-39
2021/03/18 10:46:16;;;;;;;4.70;3.95;;;;;;;6.30;61.92;98815.64;1787599;80;21731;-39
2021/03/18 10:48:49;;;;;;;5.33;4.33;;;;;;;6.41;61.61;98809.98;1787429;80;21586;-39
2021/03/18 10:51:19;;;;;;;5.10;4.22;;;;;;;6.51;61.25;98819.46;1787592;80;21652;-39
2021/03/18 10:53:51;;;;;;;5.47;4.20;;;;;;;6.53;60.95;98811.24;1787370;80;21576;-39
2021/03/18 10:56:27;;;;;;;5.30;4.17;;;;;;;6.57;60.97;98821.34;1780664;80;21182;-39
2021/03/18 10:59:17;;;;;;;4.40;4.00;;;;;;;6.58;60.87;98821.01;1773828;80;21059;-39
2021/03/18 11:01:45;;;;;;;5.33;4.55;;;;;;;6.62;60.34;98821.88;1735288;80;21641;-39
2021/03/18 11:04:14;;;;;;;9.10;4.40;;;;;;;6.58;60.20;98818.31;1734807;82;21171;-39
2021/03/18 11:06:50;;;;;;;5.53;4.33;;;;;;;6.51;60.44;98810.83;1734551;82;21390;-39
2021/03/18 11:09:18;;;;;;;6.67;4.75;;;;;;;6.50;60.15;98809.25;1734157;82;21162;-39
2021/03/18 11:14:33;;;;;;;5.97;4.83;;;;;;;6.54;59.84;98806.08;1798671;78;21985;-39
2021/03/18 11:17:06;;;;;;;4.95;3.45;;;;;;;6.52;59.87;98807.01;1709158;83;21076;-39
2021/03/18 11:19:34;;;;;;;4.60;3.10;;;;;;;6.52;59.91;98807.01;1703565;83;21833;-40
2021/03/18 11:22:05;;;;;;;4.28;3.00;;;;;;;6.47;60.08;98811.86;1687580;83;21016;-40
2021/03/18 11:24:34;;;;;;;5.03;2.90;;;;;;;6.36;60.23;98802.16;1715577;83;21360;-40
2021/03/18 11:27:05;;;;;;;3.42;3.12;;;;;;;6.26;60.41;98799.17;1712898;83;21030;-40
2021/03/18 11:29:34;;;;;;;3.67;2.83;;;;;;;6.14;60.13;98800.03;1739438;82;21621;-40
2021/03/18 11:32:06;;;;;;;4.78;3.25;;;;;;;6.02;60.65;98806.79;1716520;83;25295;-40
2021/03/18 11:34:36;;;;;;;4.25;3.40;;;;;;;5.97;61.15;98803.78;1714049;83;21001;-40
2021/03/18 11:37:07;;;;;;;3.20;2.90;;;;;;;6.02;61.23;98809.48;1716547;83;21047;-40
2021/03/18 11:39:35;;;;;;;5.65;3.67;;;;;;;6.10;60.80;98805.85;1714047;83;21183;-40
2021/03/18 11:42:04;;;;;;;4.28;3.52;;;;;;;6.19;60.71;98803.82;1716313;83;21162;-40
2021/03/18 11:44:32;;;;;;;3.08;2.70;;;;;;;6.25;60.81;98813.19;1714182;83;22065;-40
2021/03/18 11:47:05;;;;;;;3.33;2.90;;;;;;;6.26;61.25;98809.94;1716166;83;21478;-40
2021/03/18 11:49:34;;;;;;;3.90;2.75;;;;;;;6.24;60.75;98808.95;1718493;83;21861;-40
2021/03/18 11:52:03;;;;;;;4.00;2.80;;;;;;;6.18;61.54;98807.63;1695451;84;21169;-40
2021/03/18 11:54:32;;;;;;;2.45;2.15;;;;;;;6.19;61.79;98809.20;1695719;84;21545;-40
2021/03/18 11:57:00;;;;;;;3.52;3.10;;;;;;;6.23;61.32;98811.98;1695498;84;21366;-40
2021/03/18 11:59:29;;;;;;;4.20;3.10;;;;;;;6.25;61.44;98810.50;1696868;83;21166;-40
2021/03/18 12:01:57;;;;;;;4.28;3.47;;;;;;;6.32;61.31;98812.05;1724502;83;21142;-40
2021/03/18 12:04:25;;;;;;;5.15;3.92;;;;;;;6.40;60.90;98809.75;1724632;83;21166;-40
2021/03/18 12:06:54;;;;;;;3.85;3.42;;;;;;;6.46;60.57;98815.11;1724576;83;21106;-40
2021/03/18 12:09:22;;;;;;;5.58;3.98;;;;;;;6.44;60.31;98818.70;1724586;83;21204;-40